sensor_id;sensor_type;location;lat;lon;timestamp;temperature;humidity
23207;DHT22;11773;52.570;13.052;2022-09-20T00:01:56;11.90;99.90
23207;DHT22;11773;52.570;13.052;2022-09-20T00:04:25;12.00;99.90
23207;DHT22;11773;52.570;13.052;2022-09-20T00:06:54;12.00;99.90
23207;DHT22;11773;52.570;13.052;2022-09-20T00:09:24;12.00;99.90
23207;DHT22;11773;52.570;13.052;2022-09-20T00:11:53;11.90;99.90
23207;DHT22;11773;52.570;13.052;2022-09-20T00:14:23;11.90;99.90
23207;DHT22;11773;52.570;13.052;2022-09-20T00:16:52;11.90;99.90
23207;DHT22;11773;52.570;13.052;2022-09-20T00:19:22;11.90;99.90
23207;DHT22;11773;52.570;13.052;2022-09-20T00:21:53;11.90;99.90
23207;DHT22;11773;52.570;13.052;2022-09-20T00:24:22;12.00;99.90
23207;DHT22;11773;52.570;13.052;2022-09-20T00:26:52;11.90;99.90
23207;DHT22;11773;52.570;13.052;2022-09-20T00:29:21;11.80;99.90
23207;DHT22;11773;52.570;13.052;2022-09-20T00:31:52;11.70;99.90
23207;DHT22;11773;52.570;13.052;2022-09-20T00:34:21;11.70;99.90
23207;DHT22;11773;52.570;13.052;2022-09-20T00:37:09;11.70;99.90
23207;DHT22;11773;52.570;13.052;2022-09-20T00:39:38;11.70;99.90
23207;DHT22;11773;52.570;13.052;2022-09-20T00:42:12;11.70;99.90
23207;DHT22;11773;52.570;13.052;2022-09-20T00:44:55;11.70;99.90
23207;DHT22;11773;52.570;13.052;2022-09-20T00:53:19;11.80;99.90
23207;DHT22;11773;52.570;13.052;2022-09-20T00:55:59;11.70;99.90
23207;DHT22;11773;52.570;13.052;2022-09-20T00:58:32;11.70;99.90
23207;DHT22;11773;52.570;13.052;2022-09-20T01:01:05;11.70;99.90
23207;DHT22;11773;52.570;13.052;2022-09-20T01:03:36;11.60;99.90
23207;DHT22;11773;52.570;13.052;2022-09-20T01:06:10;11.60;99.90
23207;DHT22;11773;52.570;13.052;2022-09-20T01:08:44;11.60;99.90
23207;DHT22;11773;52.570;13.052;2022-09-20T01:11:16;11.60;99.90
23207;DHT22;11773;52.570;13.052;2022-09-20T01:13:46;11.40;99.90
23207;DHT22;11773;52.570;13.052;2022-09-20T01:16:16;11.50;99.90
23207;DHT22;11773;52.570;13.052;2022-09-20T01:18:47;11.40;99.90
23207;DHT22;11773;52.570;13.052;2022-09-20T01:21:18;11.40;99.90
23207;DHT22;11773;52.570;13.052;2022-09-20T01:26:36;11.40;99.90
23207;DHT22;11773;52.570;13.052;2022-09-20T01:29:31;11.30;99.90
23207;DHT22;11773;52.570;13.052;2022-09-20T01:31:58;11.30;99.90
23207;DHT22;11773;52.570;13.052;2022-09-20T01:34:34;11.30;99.90
23207;DHT22;11773;52.570;13.052;2022-09-20T01:37:15;11.30;99.90
23207;DHT22;11773;52.570;13.052;2022-09-20T01:42:50;11.40;99.90
23207;DHT22;11773;52.570;13.052;2022-09-20T01:45:26;11.40;99.90
23207;DHT22;11773;52.570;13.052;2022-09-20T01:51:30;11.30;99.90
23207;DHT22;11773;52.570;13.052;2022-09-20T01:57:37;11.40;99.90
23207;DHT22;11773;52.570;13.052;2022-09-20T02:00:12;11.50;99.90
23207;DHT22;11773;52.570;13.052;2022-09-20T02:03:16;11.40;99.90
23207;DHT22;11773;52.570;13.052;2022-09-20T02:06:02;11.40;99.90
23207;DHT22;11773;52.570;13.052;2022-09-20T02:20:56;11.50;99.90
23207;DHT22;11773;52.570;13.052;2022-09-20T02:26:21;11.50;99.90
23207;DHT22;11773;52.570;13.052;2022-09-20T02:32:20;11.60;99.90
23207;DHT22;11773;52.570;13.052;2022-09-20T02:35:14;11.60;99.90
23207;DHT22;11773;52.570;13.052;2022-09-20T02:37:56;11.70;99.90
23207;DHT22;11773;52.570;13.052;2022-09-20T02:47:22;11.70;99.90
23207;DHT22;11773;52.570;13.052;2022-09-20T02:50:20;11.70;99.90
23207;DHT22;11773;52.570;13.052;2022-09-20T02:53:17;11.70;99.90
23207;DHT22;11773;52.570;13.052;2022-09-20T02:56:12;11.70;99.90
23207;DHT22;11773;52.570;13.052;2022-09-20T02:58:59;11.60;99.90
23207;DHT22;11773;52.570;13.052;2022-09-20T03:01:36;11.70;99.90
23207;DHT22;11773;52.570;13.052;2022-09-20T03:04:29;11.80;99.90
23207;DHT22;11773;52.570;13.052;2022-09-20T03:10:34;11.70;99.90
23207;DHT22;11773;52.570;13.052;2022-09-20T03:16:43;11.80;99.90
23207;DHT22;11773;52.570;13.052;2022-09-20T03:25:26;11.80;99.90
23207;DHT22;11773;52.570;13.052;2022-09-20T03:31:25;11.80;99.90
23207;DHT22;11773;52.570;13.052;2022-09-20T03:34:08;11.80;99.90
23207;DHT22;11773;52.570;13.052;2022-09-20T03:37:05;11.70;99.90
23207;DHT22;11773;52.570;13.052;2022-09-20T03:39:53;11.60;99.90
23207;DHT22;11773;52.570;13.052;2022-09-20T03:42:31;11.70;99.90
23207;DHT22;11773;52.570;13.052;2022-09-20T03:45:23;11.80;99.90
23207;DHT22;11773;52.570;13.052;2022-09-20T03:48:41;11.80;99.90
23207;DHT22;11773;52.570;13.052;2022-09-20T03:51:10;11.80;99.90
23207;DHT22;11773;52.570;13.052;2022-09-20T04:02:54;11.60;99.90
23207;DHT22;11773;52.570;13.052;2022-09-20T04:06:32;11.60;99.90
23207;DHT22;11773;52.570;13.052;2022-09-20T04:08:30;11.70;99.90
23207;DHT22;11773;52.570;13.052;2022-09-20T04:11:30;11.70;99.90
23207;DHT22;11773;52.570;13.052;2022-09-20T04:14:19;11.60;99.90
23207;DHT22;11773;52.570;13.052;2022-09-20T04:17:00;11.70;99.90
23207;DHT22;11773;52.570;13.052;2022-09-20T04:20:10;11.70;99.90
23207;DHT22;11773;52.570;13.052;2022-09-20T04:22:58;11.70;99.90
23207;DHT22;11773;52.570;13.052;2022-09-20T04:25:41;11.80;99.90
23207;DHT22;11773;52.570;13.052;2022-09-20T04:28:16;11.80;99.90
23207;DHT22;11773;52.570;13.052;2022-09-20T04:30:59;11.80;99.90
23207;DHT22;11773;52.570;13.052;2022-09-20T04:33:33;11.80;99.90
23207;DHT22;11773;52.570;13.052;2022-09-20T04:45:24;11.70;99.90
23207;DHT22;11773;52.570;13.052;2022-09-20T05:00:03;11.60;99.90
23207;DHT22;11773;52.570;13.052;2022-09-20T05:05:49;11.60;99.90
23207;DHT22;11773;52.570;13.052;2022-09-20T05:08:32;11.50;99.90
23207;DHT22;11773;52.570;13.052;2022-09-20T05:14:55;11.60;99.90
23207;DHT22;11773;52.570;13.052;2022-09-20T05:29:31;11.60;99.90
23207;DHT22;11773;52.570;13.052;2022-09-20T05:32:13;11.60;99.90
23207;DHT22;11773;52.570;13.052;2022-09-20T05:35:01;11.60;99.90
23207;DHT22;11773;52.570;13.052;2022-09-20T05:37:48;11.70;99.90
23207;DHT22;11773;52.570;13.052;2022-09-20T05:40:40;11.70;99.90
23207;DHT22;11773;52.570;13.052;2022-09-20T05:43:22;11.70;99.90
23207;DHT22;11773;52.570;13.052;2022-09-20T05:46:25;11.60;99.90
23207;DHT22;11773;52.570;13.052;2022-09-20T05:49:01;11.70;99.90
23207;DHT22;11773;52.570;13.052;2022-09-20T05:55:42;11.70;99.90
23207;DHT22;11773;52.570;13.052;2022-09-20T05:58:10;11.70;99.90
23207;DHT22;11773;52.570;13.052;2022-09-20T06:01:19;11.70;99.90
23207;DHT22;11773;52.570;13.052;2022-09-20T06:04:01;11.70;99.90
23207;DHT22;11773;52.570;13.052;2022-09-20T06:06:56;11.80;99.90
23207;DHT22;11773;52.570;13.052;2022-09-20T06:09:44;11.70;99.90
23207;DHT22;11773;52.570;13.052;2022-09-20T06:12:24;11.70;99.90
23207;DHT22;11773;52.570;13.052;2022-09-20T06:15:08;11.80;99.90
23207;DHT22;11773;52.570;13.052;2022-09-20T06:18:06;11.80;99.90
23207;DHT22;11773;52.570;13.052;2022-09-20T06:20:42;11.90;99.90
23207;DHT22;11773;52.570;13.052;2022-09-20T06:23:16;11.80;99.90
23207;DHT22;11773;52.570;13.052;2022-09-20T06:25:54;11.80;99.90
23207;DHT22;11773;52.570;13.052;2022-09-20T06:28:40;11.80;99.90
23207;DHT22;11773;52.570;13.052;2022-09-20T06:31:12;11.90;99.90
23207;DHT22;11773;52.570;13.052;2022-09-20T06:33:49;11.90;99.90
23207;DHT22;11773;52.570;13.052;2022-09-20T06:42:33;12.10;99.90
23207;DHT22;11773;52.570;13.052;2022-09-20T06:45:05;12.10;99.90
23207;DHT22;11773;52.570;13.052;2022-09-20T06:47:35;12.30;99.90
23207;DHT22;11773;52.570;13.052;2022-09-20T06:50:05;12.50;99.90
23207;DHT22;11773;52.570;13.052;2022-09-20T06:52:38;12.60;99.90
23207;DHT22;11773;52.570;13.052;2022-09-20T06:55:20;12.60;99.90
23207;DHT22;11773;52.570;13.052;2022-09-20T06:57:53;12.80;99.90
23207;DHT22;11773;52.570;13.052;2022-09-20T07:00:23;13.30;99.90
23207;DHT22;11773;52.570;13.052;2022-09-20T07:02:53;13.80;99.90
23207;DHT22;11773;52.570;13.052;2022-09-20T07:05:23;14.20;99.90
23207;DHT22;11773;52.570;13.052;2022-09-20T07:07:57;14.50;99.90
23207;DHT22;11773;52.570;13.052;2022-09-20T07:10:28;14.70;99.90
23207;DHT22;11773;52.570;13.052;2022-09-20T07:12:59;15.00;99.90
23207;DHT22;11773;52.570;13.052;2022-09-20T07:15:33;15.20;99.90
23207;DHT22;11773;52.570;13.052;2022-09-20T07:18:04;15.20;99.90
23207;DHT22;11773;52.570;13.052;2022-09-20T07:20:34;15.30;99.90
23207;DHT22;11773;52.570;13.052;2022-09-20T07:23:04;15.30;99.90
23207;DHT22;11773;52.570;13.052;2022-09-20T07:25:35;15.20;99.90
23207;DHT22;11773;52.570;13.052;2022-09-20T07:28:05;15.50;99.90
23207;DHT22;11773;52.570;13.052;2022-09-20T07:30:34;15.60;99.90
23207;DHT22;11773;52.570;13.052;2022-09-20T07:33:05;15.60;99.90
23207;DHT22;11773;52.570;13.052;2022-09-20T07:35:36;15.80;99.90
23207;DHT22;11773;52.570;13.052;2022-09-20T07:38:06;15.60;99.90
23207;DHT22;11773;52.570;13.052;2022-09-20T07:40:36;15.80;99.90
23207;DHT22;11773;52.570;13.052;2022-09-20T07:43:06;15.80;99.90
23207;DHT22;11773;52.570;13.052;2022-09-20T07:45:36;15.60;99.90
23207;DHT22;11773;52.570;13.052;2022-09-20T07:48:06;15.50;99.90
23207;DHT22;11773;52.570;13.052;2022-09-20T07:50:36;15.50;99.90
23207;DHT22;11773;52.570;13.052;2022-09-20T07:53:05;15.50;99.90
23207;DHT22;11773;52.570;13.052;2022-09-20T07:55:35;15.50;99.90
23207;DHT22;11773;52.570;13.052;2022-09-20T07:58:04;15.50;99.90
23207;DHT22;11773;52.570;13.052;2022-09-20T08:00:34;15.60;99.90
23207;DHT22;11773;52.570;13.052;2022-09-20T08:03:03;15.40;99.90
23207;DHT22;11773;52.570;13.052;2022-09-20T08:05:33;15.40;99.90
23207;DHT22;11773;52.570;13.052;2022-09-20T08:08:02;15.10;99.90
23207;DHT22;11773;52.570;13.052;2022-09-20T08:10:31;15.20;99.90
23207;DHT22;11773;52.570;13.052;2022-09-20T08:13:01;15.10;99.90
23207;DHT22;11773;52.570;13.052;2022-09-20T08:15:33;15.10;99.90
23207;DHT22;11773;52.570;13.052;2022-09-20T08:18:02;14.90;99.90
23207;DHT22;11773;52.570;13.052;2022-09-20T08:20:37;15.00;99.90
23207;DHT22;11773;52.570;13.052;2022-09-20T08:23:07;15.30;99.90
23207;DHT22;11773;52.570;13.052;2022-09-20T08:25:39;15.10;99.90
23207;DHT22;11773;52.570;13.052;2022-09-20T08:28:08;15.30;99.90
23207;DHT22;11773;52.570;13.052;2022-09-20T08:30:38;15.20;99.90
23207;DHT22;11773;52.570;13.052;2022-09-20T08:33:07;15.20;99.90
23207;DHT22;11773;52.570;13.052;2022-09-20T08:35:38;15.30;99.90
23207;DHT22;11773;52.570;13.052;2022-09-20T08:38:07;15.40;99.90
23207;DHT22;11773;52.570;13.052;2022-09-20T08:40:39;15.50;99.90
23207;DHT22;11773;52.570;13.052;2022-09-20T08:43:09;15.40;99.90
23207;DHT22;11773;52.570;13.052;2022-09-20T08:45:39;15.60;99.90
23207;DHT22;11773;52.570;13.052;2022-09-20T08:48:12;15.30;99.90
23207;DHT22;11773;52.570;13.052;2022-09-20T08:50:43;15.30;99.90
23207;DHT22;11773;52.570;13.052;2022-09-20T08:53:13;15.20;99.90
23207;DHT22;11773;52.570;13.052;2022-09-20T08:55:45;15.30;99.90
23207;DHT22;11773;52.570;13.052;2022-09-20T08:58:15;15.40;99.90
23207;DHT22;11773;52.570;13.052;2022-09-20T09:00:46;15.40;99.90
23207;DHT22;11773;52.570;13.052;2022-09-20T09:03:17;15.60;99.90
23207;DHT22;11773;52.570;13.052;2022-09-20T09:05:49;15.50;99.90
23207;DHT22;11773;52.570;13.052;2022-09-20T09:11:07;15.70;99.90
23207;DHT22;11773;52.570;13.052;2022-09-20T09:17:18;15.60;99.90
23207;DHT22;11773;52.570;13.052;2022-09-20T09:19:59;15.70;
23207;DHT22;11773;52.570;13.052;2022-09-20T09:22:44;15.90;99.90
23207;DHT22;11773;52.570;13.052;2022-09-20T09:25:24;16.00;99.90
23207;DHT22;11773;52.570;13.052;2022-09-20T09:28:03;15.70;99.90
23207;DHT22;11773;52.570;13.052;2022-09-20T09:33:28;15.80;99.90
23207;DHT22;11773;52.570;13.052;2022-09-20T09:36:09;15.50;99.90
23207;DHT22;11773;52.570;13.052;2022-09-20T09:38:44;15.30;99.90
23207;DHT22;11773;52.570;13.052;2022-09-20T09:41:20;15.60;99.90
23207;DHT22;11773;52.570;13.052;2022-09-20T09:44:04;15.80;99.90
23207;DHT22;11773;52.570;13.052;2022-09-20T09:46:38;15.80;99.90
23207;DHT22;11773;52.570;13.052;2022-09-20T09:52:16;16.00;99.90
23207;DHT22;11773;52.570;13.052;2022-09-20T09:54:53;16.40;99.90
23207;DHT22;11773;52.570;13.052;2022-09-20T09:57:52;16.40;99.90
23207;DHT22;11773;52.570;13.052;2022-09-20T10:00:25;16.20;99.90
23207;DHT22;11773;52.570;13.052;2022-09-20T10:03:33;16.30;99.90
23207;DHT22;11773;52.570;13.052;2022-09-20T10:09:15;16.40;99.90
23207;DHT22;11773;52.570;13.052;2022-09-20T10:12:08;16.40;99.90
23207;DHT22;11773;52.570;13.052;2022-09-20T10:14:43;16.10;99.90
23207;DHT22;11773;52.570;13.052;2022-09-20T10:20:55;16.00;99.90
23207;DHT22;11773;52.570;13.052;2022-09-20T10:23:27;16.00;99.90
23207;DHT22;11773;52.570;13.052;2022-09-20T10:26:32;16.30;99.90
23207;DHT22;11773;52.570;13.052;2022-09-20T10:29:41;16.30;99.90
23207;DHT22;11773;52.570;13.052;2022-09-20T10:38:29;16.50;99.90
23207;DHT22;11773;52.570;13.052;2022-09-20T10:44:14;16.70;99.90
23207;DHT22;11773;52.570;13.052;2022-09-20T10:49:36;17.00;99.90
23207;DHT22;11773;52.570;13.052;2022-09-20T10:52:35;16.70;99.90
23207;DHT22;11773;52.570;13.052;2022-09-20T10:58:47;17.00;99.90
23207;DHT22;11773;52.570;13.052;2022-09-20T11:01:40;17.10;99.90
23207;DHT22;11773;52.570;13.052;2022-09-20T11:04:51;17.30;99.90
23207;DHT22;11773;52.570;13.052;2022-09-20T11:10:34;17.60;99.90
23207;DHT22;11773;52.570;13.052;2022-09-20T11:16:22;17.30;99.90
23207;DHT22;11773;52.570;13.052;2022-09-20T11:19:30;17.30;99.90
23207;DHT22;11773;52.570;13.052;2022-09-20T11:22:21;17.00;99.90
23207;DHT22;11773;52.570;13.052;2022-09-20T11:28:09;16.80;99.90
23207;DHT22;11773;52.570;13.052;2022-09-20T11:30:47;16.90;99.90
23207;DHT22;11773;52.570;13.052;2022-09-20T11:33:27;17.30;99.90
23207;DHT22;11773;52.570;13.052;2022-09-20T11:36:01;17.30;99.90
23207;DHT22;11773;52.570;13.052;2022-09-20T11:38:47;17.20;99.90
23207;DHT22;11773;52.570;13.052;2022-09-20T11:41:25;17.20;99.90
23207;DHT22;11773;52.570;13.052;2022-09-20T11:44:09;17.30;99.90
23207;DHT22;11773;52.570;13.052;2022-09-20T11:46:43;17.50;99.90
23207;DHT22;11773;52.570;13.052;2022-09-20T11:49:47;17.40;99.90
23207;DHT22;11773;52.570;13.052;2022-09-20T11:58:01;17.40;99.90
23207;DHT22;11773;52.570;13.052;2022-09-20T12:00:35;17.30;99.90
23207;DHT22;11773;52.570;13.052;2022-09-20T12:03:29;17.40;99.90
23207;DHT22;11773;52.570;13.052;2022-09-20T12:06:20;17.40;99.90
23207;DHT22;11773;52.570;13.052;2022-09-20T12:08:50;17.50;99.90
23207;DHT22;11773;52.570;13.052;2022-09-20T12:11:34;17.40;99.90
23207;DHT22;11773;52.570;13.052;2022-09-20T12:14:17;17.50;99.90
23207;DHT22;11773;52.570;13.052;2022-09-20T12:16:49;17.40;99.90
23207;DHT22;11773;52.570;13.052;2022-09-20T12:22:15;17.60;99.90
23207;DHT22;11773;52.570;13.052;2022-09-20T12:24:42;17.70;99.90
23207;DHT22;11773;52.570;13.052;2022-09-20T12:30:19;17.80;99.90
23207;DHT22;11773;52.570;13.052;2022-09-20T12:32:57;17.60;99.90
23207;DHT22;11773;52.570;13.052;2022-09-20T12:38:25;17.30;99.90
23207;DHT22;11773;52.570;13.052;2022-09-20T12:40:59;16.70;99.90
23207;DHT22;11773;52.570;13.052;2022-09-20T12:44:01;16.60;99.90
23207;DHT22;11773;52.570;13.052;2022-09-20T12:46:41;16.30;99.90
23207;DHT22;11773;52.570;13.052;2022-09-20T12:58:29;15.40;99.90
23207;DHT22;11773;52.570;13.052;2022-09-20T13:03:40;15.20;99.90
23207;DHT22;11773;52.570;13.052;2022-09-20T13:09:06;15.50;99.90
23207;DHT22;11773;52.570;13.052;2022-09-20T13:11:53;15.70;99.90
23207;DHT22;11773;52.570;13.052;2022-09-20T13:14:25;15.60;99.90
23207;DHT22;11773;52.570;13.052;2022-09-20T13:19:57;15.50;99.90
23207;DHT22;11773;52.570;13.052;2022-09-20T13:22:35;15.40;99.90
23207;DHT22;11773;52.570;13.052;2022-09-20T13:25:11;15.50;99.90
23207;DHT22;11773;52.570;13.052;2022-09-20T13:28:06;15.30;99.90
23207;DHT22;11773;52.570;13.052;2022-09-20T13:33:51;15.30;99.90
23207;DHT22;11773;52.570;13.052;2022-09-20T13:36:26;15.30;99.90
23207;DHT22;11773;52.570;13.052;2022-09-20T13:38:58;15.30;99.90
23207;DHT22;11773;52.570;13.052;2022-09-20T13:41:29;15.40;99.90
23207;DHT22;11773;52.570;13.052;2022-09-20T13:44:00;15.30;99.90
23207;DHT22;11773;52.570;13.052;2022-09-20T13:46:31;15.30;99.90
23207;DHT22;11773;52.570;13.052;2022-09-20T13:49:18;15.40;99.90
23207;DHT22;11773;52.570;13.052;2022-09-20T13:51:46;15.40;99.90
23207;DHT22;11773;52.570;13.052;2022-09-20T13:54:28;15.30;99.90
23207;DHT22;11773;52.570;13.052;2022-09-20T13:57:02;15.40;99.90
23207;DHT22;11773;52.570;13.052;2022-09-20T13:59:38;15.40;99.90
23207;DHT22;11773;52.570;13.052;2022-09-20T14:05:03;15.50;99.90
23207;DHT22;11773;52.570;13.052;2022-09-20T14:07:34;15.30;99.90
23207;DHT22;11773;52.570;13.052;2022-09-20T14:10:05;15.20;99.90
23207;DHT22;11773;52.570;13.052;2022-09-20T14:12:37;15.30;99.90
23207;DHT22;11773;52.570;13.052;2022-09-20T14:15:07;15.40;99.90
23207;DHT22;11773;52.570;13.052;2022-09-20T14:17:38;15.40;99.90
23207;DHT22;11773;52.570;13.052;2022-09-20T14:20:12;15.40;99.90
23207;DHT22;11773;52.570;13.052;2022-09-20T14:22:44;15.40;99.90
23207;DHT22;11773;52.570;13.052;2022-09-20T14:28:02;15.60;99.90
23207;DHT22;11773;52.570;13.052;2022-09-20T14:30:35;15.60;99.90
23207;DHT22;11773;52.570;13.052;2022-09-20T14:33:06;15.60;99.90
23207;DHT22;11773;52.570;13.052;2022-09-20T14:35:45;15.60;99.90
23207;DHT22;11773;52.570;13.052;2022-09-20T14:38:21;15.60;99.90
23207;DHT22;11773;52.570;13.052;2022-09-20T14:40:52;15.70;99.90
23207;DHT22;11773;52.570;13.052;2022-09-20T14:43:31;15.60;99.90
23207;DHT22;11773;52.570;13.052;2022-09-20T14:46:05;15.70;99.90
23207;DHT22;11773;52.570;13.052;2022-09-20T14:48:38;15.70;99.90
23207;DHT22;11773;52.570;13.052;2022-09-20T14:51:20;15.80;99.90
23207;DHT22;11773;52.570;13.052;2022-09-20T14:56:38;16.20;99.90
23207;DHT22;11773;52.570;13.052;2022-09-20T14:59:19;16.10;99.90
23207;DHT22;11773;52.570;13.052;2022-09-20T15:02:03;16.00;99.90
23207;DHT22;11773;52.570;13.052;2022-09-20T15:04:39;16.00;99.90
23207;DHT22;11773;52.570;13.052;2022-09-20T15:07:10;16.00;99.90
23207;DHT22;11773;52.570;13.052;2022-09-20T15:09:40;15.90;99.90
23207;DHT22;11773;52.570;13.052;2022-09-20T15:12:13;15.90;99.90
23207;DHT22;11773;52.570;13.052;2022-09-20T15:14:45;15.80;99.90
23207;DHT22;11773;52.570;13.052;2022-09-20T15:17:17;15.80;99.90
23207;DHT22;11773;52.570;13.052;2022-09-20T15:19:48;15.80;99.90
23207;DHT22;11773;52.570;13.052;2022-09-20T15:22:18;15.90;99.90
23207;DHT22;11773;52.570;13.052;2022-09-20T15:24:47;16.00;99.90
23207;DHT22;11773;52.570;13.052;2022-09-20T15:27:17;15.90;99.90
23207;DHT22;11773;52.570;13.052;2022-09-20T15:29:46;15.90;99.90
23207;DHT22;11773;52.570;13.052;2022-09-20T15:32:16;16.00;99.90
23207;DHT22;11773;52.570;13.052;2022-09-20T15:34:45;16.00;99.90
23207;DHT22;11773;52.570;13.052;2022-09-20T15:37:15;16.10;99.90
23207;DHT22;11773;52.570;13.052;2022-09-20T15:39:44;16.00;99.90
23207;DHT22;11773;52.570;13.052;2022-09-20T15:42:13;16.10;99.90
23207;DHT22;11773;52.570;13.052;2022-09-20T15:44:43;16.10;99.90
23207;DHT22;11773;52.570;13.052;2022-09-20T15:47:13;16.00;99.90
23207;DHT22;11773;52.570;13.052;2022-09-20T15:49:42;15.90;99.90
23207;DHT22;11773;52.570;13.052;2022-09-20T15:52:13;15.80;99.90
23207;DHT22;11773;52.570;13.052;2022-09-20T15:54:43;15.90;99.90
23207;DHT22;11773;52.570;13.052;2022-09-20T15:57:12;15.80;99.90
23207;DHT22;11773;52.570;13.052;2022-09-20T15:59:42;15.70;99.90
23207;DHT22;11773;52.570;13.052;2022-09-20T16:02:12;15.60;99.90
23207;DHT22;11773;52.570;13.052;2022-09-20T16:04:42;15.60;99.90
23207;DHT22;11773;52.570;13.052;2022-09-20T16:07:11;15.50;99.90
23207;DHT22;11773;52.570;13.052;2022-09-20T16:09:42;15.50;99.90
23207;DHT22;11773;52.570;13.052;2022-09-20T16:12:12;15.40;99.90
23207;DHT22;11773;52.570;13.052;2022-09-20T16:14:41;15.40;99.90
23207;DHT22;11773;52.570;13.052;2022-09-20T16:17:11;15.30;99.90
23207;DHT22;11773;52.570;13.052;2022-09-20T16:19:40;15.30;99.90
23207;DHT22;11773;52.570;13.052;2022-09-20T16:22:11;15.20;99.90
23207;DHT22;11773;52.570;13.052;2022-09-20T16:24:40;15.00;99.90
23207;DHT22;11773;52.570;13.052;2022-09-20T16:27:10;15.10;99.90
23207;DHT22;11773;52.570;13.052;2022-09-20T16:29:40;15.00;99.90
23207;DHT22;11773;52.570;13.052;2022-09-20T16:32:09;15.00;99.90
23207;DHT22;11773;52.570;13.052;2022-09-20T16:34:39;15.00;99.90
23207;DHT22;11773;52.570;13.052;2022-09-20T16:37:12;15.10;99.90
23207;DHT22;11773;52.570;13.052;2022-09-20T16:39:43;15.00;99.90
23207;DHT22;11773;52.570;13.052;2022-09-20T16:42:12;15.00;99.90
23207;DHT22;11773;52.570;13.052;2022-09-20T16:44:42;15.00;99.90
23207;DHT22;11773;52.570;13.052;2022-09-20T16:47:14;15.00;99.90
23207;DHT22;11773;52.570;13.052;2022-09-20T16:49:51;14.90;99.90
23207;DHT22;11773;52.570;13.052;2022-09-20T16:52:21;14.90;99.90
23207;DHT22;11773;52.570;13.052;2022-09-20T16:54:52;14.90;99.90
23207;DHT22;11773;52.570;13.052;2022-09-20T16:57:22;14.70;99.90
23207;DHT22;11773;52.570;13.052;2022-09-20T16:59:52;14.80;99.90
23207;DHT22;11773;52.570;13.052;2022-09-20T17:02:22;14.70;99.90
23207;DHT22;11773;52.570;13.052;2022-09-20T17:04:51;14.70;99.90
23207;DHT22;11773;52.570;13.052;2022-09-20T17:07:22;14.60;99.90
23207;DHT22;11773;52.570;13.052;2022-09-20T17:09:51;14.50;99.90
23207;DHT22;11773;52.570;13.052;2022-09-20T17:12:23;14.50;99.90
23207;DHT22;11773;52.570;13.052;2022-09-20T17:14:54;14.50;99.90
23207;DHT22;11773;52.570;13.052;2022-09-20T17:17:23;14.50;99.90
23207;DHT22;11773;52.570;13.052;2022-09-20T17:19:53;14.50;99.90
23207;DHT22;11773;52.570;13.052;2022-09-20T17:22:22;14.50;99.90
23207;DHT22;11773;52.570;13.052;2022-09-20T17:24:51;14.40;99.90
23207;DHT22;11773;52.570;13.052;2022-09-20T17:27:21;14.50;99.90
23207;DHT22;11773;52.570;13.052;2022-09-20T17:29:50;14.50;99.90
23207;DHT22;11773;52.570;13.052;2022-09-20T17:32:20;14.50;99.90
23207;DHT22;11773;52.570;13.052;2022-09-20T17:34:50;14.50;99.90
23207;DHT22;11773;52.570;13.052;2022-09-20T17:37:20;14.50;99.90
23207;DHT22;11773;52.570;13.052;2022-09-20T17:39:50;14.50;99.90
23207;DHT22;11773;52.570;13.052;2022-09-20T17:42:19;14.50;99.90
23207;DHT22;11773;52.570;13.052;2022-09-20T17:44:49;14.50;99.90
23207;DHT22;11773;52.570;13.052;2022-09-20T17:47:18;14.40;99.90
23207;DHT22;11773;52.570;13.052;2022-09-20T17:49:49;14.30;99.90
23207;DHT22;11773;52.570;13.052;2022-09-20T17:52:18;14.30;99.90
23207;DHT22;11773;52.570;13.052;2022-09-20T17:54:48;14.20;99.90
23207;DHT22;11773;52.570;13.052;2022-09-20T17:57:17;14.20;99.90
23207;DHT22;11773;52.570;13.052;2022-09-20T17:59:47;14.30;99.90
23207;DHT22;11773;52.570;13.052;2022-09-20T18:02:16;14.30;99.90
23207;DHT22;11773;52.570;13.052;2022-09-20T18:04:46;14.30;99.90
23207;DHT22;11773;52.570;13.052;2022-09-20T18:07:16;14.20;99.90
23207;DHT22;11773;52.570;13.052;2022-09-20T18:09:45;14.20;99.90
23207;DHT22;11773;52.570;13.052;2022-09-20T18:12:15;14.20;99.90
23207;DHT22;11773;52.570;13.052;2022-09-20T18:14:46;14.30;99.90
23207;DHT22;11773;52.570;13.052;2022-09-20T18:17:16;14.20;99.90
23207;DHT22;11773;52.570;13.052;2022-09-20T18:19:45;14.20;99.90
23207;DHT22;11773;52.570;13.052;2022-09-20T18:22:15;14.10;99.90
23207;DHT22;11773;52.570;13.052;2022-09-20T18:24:45;14.00;99.90
23207;DHT22;11773;52.570;13.052;2022-09-20T18:27:14;14.00;99.90
23207;DHT22;11773;52.570;13.052;2022-09-20T18:29:44;14.00;99.90
23207;DHT22;11773;52.570;13.052;2022-09-20T18:32:13;14.00;99.90
23207;DHT22;11773;52.570;13.052;2022-09-20T18:34:43;14.00;99.90
23207;DHT22;11773;52.570;13.052;2022-09-20T18:37:14;13.90;99.90
23207;DHT22;11773;52.570;13.052;2022-09-20T18:39:43;13.90;99.90
23207;DHT22;11773;52.570;13.052;2022-09-20T18:42:13;13.90;99.90
23207;DHT22;11773;52.570;13.052;2022-09-20T18:44:43;13.80;99.90
23207;DHT22;11773;52.570;13.052;2022-09-20T18:47:12;13.80;99.90
23207;DHT22;11773;52.570;13.052;2022-09-20T18:52:11;13.70;99.90
23207;DHT22;11773;52.570;13.052;2022-09-20T18:54:42;13.70;99.90
23207;DHT22;11773;52.570;13.052;2022-09-20T18:57:12;13.60;99.90
23207;DHT22;11773;52.570;13.052;2022-09-20T18:59:42;13.70;99.90
23207;DHT22;11773;52.570;13.052;2022-09-20T19:05:20;13.60;99.90
23207;DHT22;11773;52.570;13.052;2022-09-20T19:08:02;13.60;99.90
23207;DHT22;11773;52.570;13.052;2022-09-20T19:13:53;13.60;99.90
23207;DHT22;11773;52.570;13.052;2022-09-20T19:16:33;13.40;99.90
23207;DHT22;11773;52.570;13.052;2022-09-20T19:22:30;13.40;99.90
23207;DHT22;11773;52.570;13.052;2022-09-20T19:25:26;13.40;99.90
23207;DHT22;11773;52.570;13.052;2022-09-20T19:27:52;13.30;99.90
23207;DHT22;11773;52.570;13.052;2022-09-20T19:30:22;13.20;99.90
23207;DHT22;11773;52.570;13.052;2022-09-20T19:32:52;13.20;99.90
23207;DHT22;11773;52.570;13.052;2022-09-20T19:35:24;13.10;99.90
23207;DHT22;11773;52.570;13.052;2022-09-20T19:38:12;13.00;99.90
23207;DHT22;11773;52.570;13.052;2022-09-20T19:40:50;13.00;99.90
23207;DHT22;11773;52.570;13.052;2022-09-20T19:49:44;13.00;99.90
23207;DHT22;11773;52.570;13.052;2022-09-20T19:52:15;12.90;99.90
23207;DHT22;11773;52.570;13.052;2022-09-20T19:54:46;12.90;99.90